createdAt,value
2023-05-05T00:01:40.796Z,97.11
2023-05-05T00:04:43.146Z,96.62
2023-05-05T00:07:45.379Z,97.28
2023-05-05T00:10:48.733Z,97.15
2023-05-05T00:13:51.518Z,96.34
2023-05-05T00:16:53.927Z,96.79
2023-05-05T00:19:56.807Z,97.10
2023-05-05T00:22:59.069Z,95.89
2023-05-05T00:26:01.316Z,96.25
2023-05-05T00:29:03.594Z,98.66
2023-05-05T00:32:05.827Z,99.47
2023-05-05T00:35:08.740Z,97.87
2023-05-05T00:38:11.000Z,96.98
2023-05-05T00:41:13.385Z,97.79
2023-05-05T00:44:15.795Z,97.36
2023-05-05T00:47:18.614Z,97.35
2023-05-05T00:50:29.177Z,98.04
2023-05-05T00:53:31.458Z,97.95
2023-05-05T00:56:34.391Z,97.79
2023-05-05T00:59:38.211Z,98.35
2023-05-05T01:02:41.419Z,97.86
2023-05-05T01:06:03.450Z,97.14
2023-05-05T01:09:20.805Z,97.06
2023-05-05T01:12:37.137Z,96.45
2023-05-05T01:15:51.946Z,96.72
2023-05-05T01:19:03.760Z,97.10
2023-05-05T01:22:08.903Z,98.53
2023-05-05T01:25:41.721Z,98.08
2023-05-05T01:29:06.491Z,99.08
2023-05-05T01:32:15.040Z,99.45
2023-05-05T01:35:28.054Z,98.75
2023-05-05T01:38:40.488Z,97.58
2023-05-05T01:41:48.373Z,98.31
2023-05-05T01:44:52.856Z,98.87
2023-05-05T01:47:57.298Z,99.31
2023-05-05T01:51:03.070Z,99.41
2023-05-05T01:54:10.056Z,98.71
2023-05-05T01:57:13.751Z,98.29
2023-05-05T02:00:18.082Z,96.99
2023-05-05T02:03:22.799Z,96.74
2023-05-05T02:06:27.082Z,97.17
2023-05-05T02:09:31.035Z,97.37
2023-05-05T02:12:35.389Z,96.85
2023-05-05T02:15:39.235Z,95.91
2023-05-05T02:18:42.650Z,96.14
2023-05-05T02:21:44.939Z,95.85
2023-05-05T02:24:47.260Z,95.84
2023-05-05T02:27:59.348Z,96.46
2023-05-05T02:31:04.967Z,95.75
2023-05-05T02:34:08.096Z,95.59
2023-05-05T02:37:15.867Z,97.47
2023-05-05T02:40:23.781Z,98.30
2023-05-05T02:43:33.074Z,96.66
2023-05-05T02:46:37.512Z,95.40
2023-05-05T02:49:39.901Z,94.94
2023-05-05T02:52:42.415Z,95.48
2023-05-05T02:55:53.736Z,96.79
2023-05-05T02:59:20.901Z,97.16
2023-05-05T03:02:46.773Z,97.32
2023-05-05T03:05:58.734Z,98.01
2023-05-05T03:09:14.211Z,97.99
2023-05-05T03:12:22.326Z,98.38
2023-05-05T03:15:51.516Z,98.52
2023-05-05T03:18:58.778Z,99.43
2023-05-05T03:22:04.354Z,99.99
2023-05-05T03:25:07.775Z,99.99
2023-05-05T03:28:10.233Z,99.99
2023-05-05T03:31:13.458Z,98.94
2023-05-05T03:34:15.712Z,98.51
2023-05-05T03:37:22.004Z,97.48
2023-05-05T03:40:36.247Z,98.13
2023-05-05T03:43:43.503Z,98.02
2023-05-05T03:46:46.303Z,97.79
2023-05-05T03:49:50.612Z,97.81
2023-05-05T03:52:53.052Z,97.83
2023-05-05T03:55:55.762Z,97.27
2023-05-05T03:58:58.186Z,97.59
2023-05-05T04:02:01.282Z,97.81
2023-05-05T04:05:03.743Z,97.91
2023-05-05T04:08:06.907Z,97.54
2023-05-05T04:11:09.168Z,96.88
2023-05-05T04:14:12.146Z,96.74
2023-05-05T04:17:14.754Z,96.64
2023-05-05T04:20:17.391Z,96.24
2023-05-05T04:23:19.815Z,97.35
2023-05-05T04:26:23.160Z,96.58
2023-05-05T04:29:31.302Z,95.97
2023-05-05T04:32:42.129Z,96.10
2023-05-05T04:35:46.254Z,96.16
2023-05-05T04:38:55.666Z,96.21
2023-05-05T04:41:57.971Z,96.47
2023-05-05T04:45:00.330Z,97.13
2023-05-05T04:48:02.912Z,98.38
2023-05-05T04:51:06.543Z,98.65
2023-05-05T04:54:09.387Z,98.22
2023-05-05T04:57:11.612Z,97.63
2023-05-05T05:00:14.190Z,97.42
2023-05-05T05:03:16.568Z,97.62
2023-05-05T05:06:18.904Z,97.93
2023-05-05T05:09:21.395Z,97.59
2023-05-05T05:12:23.641Z,97.35
2023-05-05T05:15:26.176Z,96.70
2023-05-05T05:18:29.013Z,96.37
2023-05-05T05:21:31.790Z,95.79
2023-05-05T05:24:34.988Z,95.61
2023-05-05T05:27:37.393Z,96.40
2023-05-05T05:30:39.709Z,96.19
2023-05-05T05:33:43.951Z,95.38
2023-05-05T05:36:48.465Z,94.66
2023-05-05T05:39:53.836Z,93.96
2023-05-05T05:42:58.699Z,93.44
2023-05-05T05:46:01.752Z,92.94
2023-05-05T05:49:04.770Z,92.36
2023-05-05T05:52:07.252Z,91.88
2023-05-05T05:55:09.689Z,91.04
2023-05-05T05:58:13.382Z,89.25
2023-05-05T06:01:16.570Z,88.40
2023-05-05T06:04:26.356Z,88.20
2023-05-05T06:07:28.825Z,88.06
2023-05-05T06:10:32.451Z,87.68
2023-05-05T06:13:39.752Z,86.92
2023-05-05T06:16:42.262Z,86.32
2023-05-05T06:19:48.141Z,85.97
2023-05-05T06:22:50.534Z,84.83
2023-05-05T06:25:54.670Z,84.09
2023-05-05T06:28:58.634Z,83.80
2023-05-05T06:32:01.310Z,83.04
2023-05-05T06:35:10.277Z,82.46
2023-05-05T06:38:13.235Z,80.99
2023-05-05T06:41:22.386Z,80.03
2023-05-05T06:44:25.430Z,80.47
2023-05-05T06:47:27.744Z,78.50
2023-05-05T06:50:30.051Z,79.18
2023-05-05T06:53:32.297Z,78.67
2023-05-05T06:56:34.485Z,77.00
2023-05-05T06:59:37.085Z,76.93
2023-05-05T07:02:40.024Z,77.63
2023-05-05T07:05:42.559Z,76.42
2023-05-05T07:08:46.454Z,76.48
2023-05-05T07:11:48.716Z,75.59
2023-05-05T07:14:52.798Z,77.20
2023-05-05T07:17:55.479Z,75.85
2023-05-05T07:21:01.763Z,74.55
2023-05-05T07:24:04.199Z,72.79
2023-05-05T07:27:12.678Z,72.65
2023-05-05T07:30:18.171Z,72.12
2023-05-05T07:33:26.386Z,69.24
2023-05-05T07:36:28.656Z,69.27
2023-05-05T07:39:31.347Z,67.80
2023-05-05T07:42:33.538Z,68.78
2023-05-05T07:45:36.019Z,67.59
2023-05-05T07:48:41.569Z,63.25
2023-05-05T07:51:57.193Z,63.58
2023-05-05T07:55:06.495Z,63.38
2023-05-05T07:58:15.932Z,62.72
2023-05-05T08:01:18.302Z,62.37
2023-05-05T08:04:34.270Z,62.63
2023-05-05T08:07:43.222Z,59.37
2023-05-05T08:10:45.525Z,56.32
2023-05-05T08:13:54.280Z,56.44
2023-05-05T08:17:03.182Z,56.35
2023-05-05T08:20:05.958Z,55.32
2023-05-05T08:23:08.264Z,54.41
2023-05-05T08:26:17.365Z,53.39
2023-05-05T08:29:26.315Z,50.38
2023-05-05T08:32:29.916Z,52.20
2023-05-05T08:35:45.355Z,51.61
2023-05-05T08:38:54.201Z,51.31
2023-05-05T08:42:10.272Z,51.53
2023-05-05T08:45:31.224Z,51.53
2023-05-05T08:48:42.209Z,51.98
2023-05-05T08:52:00.199Z,50.71
2023-05-05T08:55:20.993Z,48.78
2023-05-05T08:58:23.584Z,49.34
2023-05-05T09:01:26.374Z,50.27
2023-05-05T09:04:28.819Z,50.41
2023-05-05T09:07:32.590Z,49.78
2023-05-05T09:10:36.578Z,50.53
2023-05-05T09:13:47.093Z,49.87
2023-05-05T09:16:56.250Z,50.39
2023-05-05T09:20:08.523Z,50.20
2023-05-05T09:23:21.465Z,49.99
2023-05-05T09:26:23.815Z,49.72
2023-05-05T09:29:27.059Z,48.73
2023-05-05T09:32:48.954Z,50.28
2023-05-05T09:36:02.360Z,48.80
2023-05-05T09:39:06.245Z,48.69
2023-05-05T09:42:18.608Z,48.30
2023-05-05T09:45:20.927Z,48.12
2023-05-05T09:48:41.245Z,49.26
2023-05-05T09:51:47.642Z,47.76
2023-05-05T09:54:56.070Z,47.53
2023-05-05T09:58:17.389Z,45.51
2023-05-05T10:01:28.221Z,45.25
2023-05-05T10:04:31.496Z,45.70
2023-05-05T10:07:35.034Z,46.45
2023-05-05T10:10:51.491Z,48.31
2023-05-05T10:13:59.011Z,46.60
2023-05-05T10:17:02.225Z,46.00
2023-05-05T10:20:05.482Z,44.14
2023-05-05T10:23:15.562Z,43.19
2023-05-05T10:26:21.335Z,43.28
2023-05-05T10:29:36.538Z,41.55
2023-05-05T10:33:17.306Z,42.58
2023-05-05T10:36:31.853Z,41.58
2023-05-05T10:39:36.649Z,38.79
2023-05-05T10:42:43.207Z,38.43
2023-05-05T10:45:45.737Z,38.88
2023-05-05T10:49:04.868Z,38.05
2023-05-05T10:52:21.487Z,39.61
2023-05-05T10:55:52.299Z,37.75
2023-05-05T10:59:00.216Z,40.03
2023-05-05T11:02:21.707Z,41.91
2023-05-05T11:05:25.525Z,41.83
2023-05-05T11:08:27.883Z,39.14
2023-05-05T11:12:02.356Z,41.90
2023-05-05T11:15:26.517Z,42.45
2023-05-05T11:18:55.259Z,38.96
2023-05-05T11:22:04.451Z,39.13
2023-05-05T11:25:37.772Z,38.86
2023-05-05T11:29:01.037Z,38.04
2023-05-05T11:32:20.080Z,37.77
2023-05-05T11:35:22.440Z,38.96
2023-05-05T11:39:03.487Z,37.92
2023-05-05T11:42:25.834Z,36.64
2023-05-05T11:45:28.237Z,38.20
2023-05-05T11:48:30.485Z,37.63
2023-05-05T11:51:34.079Z,38.37
2023-05-05T11:54:48.681Z,38.95
2023-05-05T11:57:51.642Z,39.79
2023-05-05T12:00:53.916Z,39.59
2023-05-05T12:04:09.368Z,38.68
2023-05-05T12:07:19.597Z,39.45
2023-05-05T12:10:25.026Z,39.04
2023-05-05T12:13:27.373Z,38.07
2023-05-05T12:16:42.012Z,38.39
2023-05-05T12:19:48.623Z,37.25
2023-05-05T12:22:50.918Z,36.92
2023-05-05T12:25:53.406Z,36.92
2023-05-05T12:28:59.609Z,38.89
2023-05-05T12:32:01.979Z,38.92
2023-05-05T12:35:04.688Z,37.29
2023-05-05T12:38:07.185Z,41.96
2023-05-05T12:41:13.364Z,42.19
2023-05-05T12:44:15.636Z,41.77
2023-05-05T12:47:31.820Z,39.73
2023-05-05T12:50:34.070Z,40.03
2023-05-05T12:53:47.933Z,39.62
2023-05-05T12:56:50.136Z,39.68
2023-05-05T12:59:53.475Z,39.02
2023-05-05T13:02:59.006Z,38.13
2023-05-05T13:06:04.568Z,37.16
2023-05-05T13:09:27.411Z,37.90
2023-05-05T13:12:30.496Z,37.89
2023-05-05T13:15:33.769Z,35.87
2023-05-05T13:18:51.301Z,37.81
2023-05-05T13:21:54.621Z,38.53
2023-05-05T13:25:02.191Z,39.64
2023-05-05T13:28:04.636Z,37.46
2023-05-05T13:31:07.684Z,38.81
2023-05-05T13:34:16.586Z,41.18
2023-05-05T13:37:29.985Z,41.52
2023-05-05T13:40:32.749Z,40.37
2023-05-05T13:43:36.566Z,41.09
2023-05-05T13:46:44.733Z,40.55
2023-05-05T13:49:48.950Z,41.13
2023-05-05T13:52:51.334Z,41.92
2023-05-05T13:55:53.612Z,40.77
2023-05-05T13:58:55.868Z,41.77
2023-05-05T14:01:58.121Z,39.98
2023-05-05T14:05:03.659Z,37.62
2023-05-05T14:08:05.963Z,40.10
2023-05-05T14:11:08.290Z,39.61
2023-05-05T14:14:11.473Z,39.63
2023-05-05T14:17:13.693Z,40.67
2023-05-05T14:20:16.021Z,41.00
2023-05-05T14:23:19.801Z,39.53
2023-05-05T14:26:22.228Z,41.03
2023-05-05T14:29:24.472Z,40.26
2023-05-05T14:32:26.736Z,41.67
2023-05-05T14:35:35.765Z,44.40
2023-05-05T14:38:43.012Z,44.63
2023-05-05T14:41:45.394Z,43.70
2023-05-05T14:44:48.517Z,43.92
2023-05-05T14:47:51.469Z,42.84
2023-05-05T14:50:53.748Z,42.30
2023-05-05T14:54:02.681Z,41.19
2023-05-05T14:57:11.306Z,42.92
2023-05-05T15:00:14.075Z,42.69
2023-05-05T15:03:16.381Z,43.07
2023-05-05T15:06:26.529Z,42.16
2023-05-05T15:09:35.218Z,44.39
2023-05-05T15:12:43.706Z,43.67
2023-05-05T15:15:53.391Z,44.50
2023-05-05T15:19:15.041Z,44.95
2023-05-05T15:22:22.390Z,44.30
2023-05-05T15:25:24.597Z,44.95
2023-05-05T15:28:40.218Z,43.87
2023-05-05T15:31:44.086Z,45.52
2023-05-05T15:34:59.222Z,46.11
2023-05-05T15:38:18.954Z,45.02
2023-05-05T15:41:21.162Z,46.28
2023-05-05T15:44:23.464Z,44.90
2023-05-05T15:47:25.700Z,47.25
2023-05-05T15:50:28.537Z,48.17
2023-05-05T15:53:34.596Z,47.33
2023-05-05T15:56:36.921Z,47.83
2023-05-05T15:59:55.528Z,48.24
2023-05-05T16:03:07.297Z,47.01
2023-05-05T16:06:12.221Z,47.71
2023-05-05T16:09:15.231Z,48.20
2023-05-05T16:12:17.487Z,47.52
2023-05-05T16:15:20.060Z,47.35
2023-05-05T16:18:22.792Z,49.77
2023-05-05T16:21:25.645Z,49.81
2023-05-05T16:24:28.836Z,50.33
2023-05-05T16:27:31.063Z,50.74
2023-05-05T16:30:33.344Z,51.63
2023-05-05T16:33:36.403Z,51.70
2023-05-05T16:36:38.634Z,52.60
2023-05-05T16:39:41.627Z,53.52
2023-05-05T16:42:54.077Z,53.64
2023-05-05T16:46:09.088Z,53.39
2023-05-05T16:49:16.322Z,53.65
2023-05-05T16:52:20.577Z,56.40
2023-05-05T16:55:22.872Z,57.02
2023-05-05T16:58:31.172Z,56.75
2023-05-05T17:01:40.471Z,59.12
2023-05-05T17:04:49.361Z,58.21
2023-05-05T17:07:54.359Z,58.45
2023-05-05T17:10:56.809Z,60.91
2023-05-05T17:13:59.774Z,61.97
2023-05-05T17:17:03.057Z,62.64
2023-05-05T17:20:07.725Z,65.33
2023-05-05T17:23:09.972Z,66.43
2023-05-05T17:26:12.262Z,66.61
2023-05-05T17:29:19.915Z,67.06
2023-05-05T17:32:27.323Z,69.13
2023-05-05T17:35:29.824Z,69.19
2023-05-05T17:38:32.144Z,69.41
2023-05-05T17:41:34.423Z,70.54
2023-05-05T17:44:36.701Z,69.53
2023-05-05T17:47:39.098Z,69.92
2023-05-05T17:50:43.374Z,70.86
2023-05-05T17:53:45.905Z,72.10
2023-05-05T17:56:48.301Z,72.03
2023-05-05T17:59:53.583Z,73.17
2023-05-05T18:02:58.592Z,73.03
2023-05-05T18:06:02.377Z,73.98
2023-05-05T18:09:04.717Z,74.20
2023-05-05T18:12:07.810Z,74.75
2023-05-05T18:15:11.422Z,75.11
2023-05-05T18:18:13.949Z,75.62
2023-05-05T18:21:16.206Z,75.72
2023-05-05T18:24:20.344Z,75.48
2023-05-05T18:27:23.039Z,75.55
2023-05-05T18:30:25.464Z,76.73
2023-05-05T18:33:27.700Z,78.13
2023-05-05T18:36:31.481Z,78.65
2023-05-05T18:39:33.772Z,79.40
2023-05-05T18:42:36.155Z,78.96
2023-05-05T18:45:38.458Z,79.37
2023-05-05T18:48:40.864Z,80.02
2023-05-05T18:51:43.923Z,78.82
2023-05-05T18:54:46.995Z,78.25
2023-05-05T18:57:49.215Z,78.61
2023-05-05T19:00:52.320Z,79.75
2023-05-05T19:03:54.658Z,80.17
2023-05-05T19:06:57.198Z,80.56
2023-05-05T19:09:59.378Z,80.91
2023-05-05T19:13:01.661Z,81.04
2023-05-05T19:16:03.909Z,81.16
2023-05-05T19:19:06.240Z,80.86
2023-05-05T19:22:17.539Z,81.21
2023-05-05T19:25:19.890Z,82.15
2023-05-05T19:28:22.165Z,82.31
2023-05-05T19:31:27.824Z,82.85
2023-05-05T19:34:30.157Z,83.47
2023-05-05T19:37:32.360Z,83.65
2023-05-05T19:40:34.558Z,83.51
2023-05-05T19:43:36.871Z,83.50
2023-05-05T19:46:39.284Z,83.92
2023-05-05T19:49:41.683Z,83.90
2023-05-05T19:52:43.885Z,83.71
2023-05-05T19:55:46.252Z,84.36
2023-05-05T19:59:02.259Z,84.96
2023-05-05T20:02:04.607Z,85.63
2023-05-05T20:05:07.179Z,86.03
2023-05-05T20:08:09.483Z,86.25
2023-05-05T20:11:12.321Z,85.49
2023-05-05T20:14:14.630Z,86.39
2023-05-05T20:17:20.258Z,86.45
2023-05-05T20:20:22.760Z,86.19
2023-05-05T20:23:26.155Z,87.18
2023-05-05T20:26:28.499Z,87.56
2023-05-05T20:29:30.709Z,87.12
2023-05-05T20:32:33.200Z,87.69
2023-05-05T20:35:35.638Z,87.82
2023-05-05T20:38:37.853Z,88.53
2023-05-05T20:41:40.608Z,88.67
2023-05-05T20:44:42.934Z,88.22
2023-05-05T20:47:45.266Z,88.61
2023-05-05T20:50:47.658Z,88.32
2023-05-05T20:53:49.952Z,88.40
2023-05-05T20:56:53.144Z,88.74
2023-05-05T20:59:55.339Z,89.44
2023-05-05T21:03:02.557Z,89.43
2023-05-05T21:06:05.108Z,88.72
2023-05-05T21:09:07.352Z,87.93
2023-05-05T21:12:09.554Z,88.05
2023-05-05T21:15:12.078Z,88.36
2023-05-05T21:18:14.444Z,89.20
2023-05-05T21:21:16.655Z,89.55
2023-05-05T21:24:18.885Z,90.58
2023-05-05T21:27:21.236Z,90.96
2023-05-05T21:30:23.992Z,90.64
2023-05-05T21:33:26.315Z,90.02
2023-05-05T21:36:29.145Z,89.88
2023-05-05T21:39:32.462Z,89.40
2023-05-05T21:42:34.701Z,89.47
2023-05-05T21:45:36.981Z,89.80
2023-05-05T21:48:40.028Z,90.59
2023-05-05T21:51:43.121Z,90.53
2023-05-05T21:54:45.419Z,90.31
2023-05-05T21:57:47.718Z,90.49
2023-05-05T22:00:50.076Z,90.68
2023-05-05T22:03:52.425Z,91.14
2023-05-05T22:06:54.844Z,92.07
2023-05-05T22:09:57.164Z,91.89
2023-05-05T22:12:59.433Z,90.38
2023-05-05T22:16:01.765Z,90.12
2023-05-05T22:19:04.072Z,90.55
2023-05-05T22:22:07.010Z,91.07
2023-05-05T22:25:09.887Z,91.50
2023-05-05T22:28:12.393Z,92.10
2023-05-05T22:31:14.735Z,93.20
2023-05-05T22:34:18.813Z,92.54
2023-05-05T22:37:21.117Z,91.87
2023-05-05T22:40:23.548Z,91.49
2023-05-05T22:43:26.088Z,91.55
2023-05-05T22:46:28.367Z,91.89
2023-05-05T22:49:30.735Z,92.03
2023-05-05T22:52:33.092Z,92.17
2023-05-05T22:55:35.387Z,92.26
2023-05-05T22:58:37.686Z,91.52
2023-05-05T23:01:40.019Z,91.63
2023-05-05T23:04:44.666Z,91.80
2023-05-05T23:07:47.101Z,91.54
2023-05-05T23:10:49.566Z,91.62
2023-05-05T23:13:51.893Z,91.01
2023-05-05T23:16:54.295Z,90.87
2023-05-05T23:19:56.598Z,91.29
2023-05-05T23:22:58.973Z,91.01
2023-05-05T23:26:01.219Z,90.36
2023-05-05T23:29:03.468Z,90.98
2023-05-05T23:32:06.497Z,91.11
2023-05-05T23:35:09.787Z,90.27
2023-05-05T23:38:12.159Z,89.92
2023-05-05T23:41:14.415Z,91.74
2023-05-05T23:44:16.609Z,93.50
2023-05-05T23:47:18.992Z,95.04
2023-05-05T23:50:21.398Z,93.83
2023-05-05T23:53:23.717Z,93.30
2023-05-05T23:56:26.410Z,93.29
2023-05-05T23:59:28.657Z,94.15
